Map

Track Data

SID SEASON NUMBER BASIN SUBBASIN NAME ISO_TIME NATURE LAT LON WMO_WIND WMO_PRES WMO_AGENCY TRACK_TYPE DIST2LAND LANDFALL IFLAG USA_AGENCY USA_ATCF_ID USA_LAT USA_LON USA_RECORD USA_STATUS USA_WIND USA_PRES USA_SSHS USA_R34_NE USA_R34_SE USA_R34_SW USA_R34_NW USA_R50_NE USA_R50_SE USA_R50_SW USA_R50_NW USA_R64_NE USA_R64_SE USA_R64_SW USA_R64_NW USA_POCI USA_ROCI USA_RMW USA_EYE TOKYO_LAT TOKYO_LON TOKYO_GRADE TOKYO_WIND TOKYO_PRES TOKYO_R50_DIR TOKYO_R50_LONG TOKYO_R50_SHORT TOKYO_R30_DIR TOKYO_R30_LONG TOKYO_R30_SHORT TOKYO_LAND CMA_LAT CMA_LON CMA_CAT CMA_WIND CMA_PRES HKO_LAT HKO_LON HKO_CAT HKO_WIND HKO_PRES NEWDELHI_LAT NEWDELHI_LON NEWDELHI_GRADE NEWDELHI_WIND NEWDELHI_PRES NEWDELHI_CI NEWDELHI_DP NEWDELHI_POCI REUNION_LAT REUNION_LON REUNION_TYPE REUNION_WIND REUNION_PRES REUNION_TNUM REUNION_CI REUNION_RMW REUNION_R34_NE REUNION_R34_SE REUNION_R34_SW REUNION_R34_NW REUNION_R50_NE REUNION_R50_SE REUNION_R50_SW REUNION_R50_NW REUNION_R64_NE REUNION_R64_SE REUNION_R64_SW REUNION_R64_NW BOM_LAT BOM_LON BOM_TYPE BOM_WIND BOM_PRES BOM_TNUM BOM_CI BOM_RMW BOM_R34_NE BOM_R34_SE BOM_R34_SW BOM_R34_NW BOM_R50_NE BOM_R50_SE BOM_R50_SW BOM_R50_NW BOM_R64_NE BOM_R64_SE BOM_R64_SW BOM_R64_NW BOM_ROCI BOM_POCI BOM_EYE BOM_POS_METHOD BOM_PRES_METHOD NADI_LAT NADI_LON NADI_CAT NADI_WIND NADI_PRES WELLINGTON_LAT WELLINGTON_LON WELLINGTON_WIND WELLINGTON_PRES DS824_LAT DS824_LON DS824_STAGE DS824_WIND DS824_PRES TD9636_LAT TD9636_LON TD9636_STAGE TD9636_WIND TD9636_PRES TD9635_LAT TD9635_LON TD9635_WIND TD9635_PRES TD9635_ROCI NEUMANN_LAT NEUMANN_LON NEUMANN_CLASS NEUMANN_WIND NEUMANN_PRES MLC_LAT MLC_LON MLC_CLASS MLC_WIND MLC_PRES USA_GUST BOM_GUST BOM_GUST_PER REUNION_GUST REUNION_GUST_PER USA_SEAHGT USA_SEARAD_NE USA_SEARAD_SE USA_SEARAD_SW USA_SEARAD_NW STORM_SPEED STORM_DIR
1916005S17165 1916 2 SP MM NOT_NAMED 1916-01-04 12:00:00 NR -17.3000 165.200 main 242 210 __________O___ -1 -17.3000 165.200 7 5 78
1916005S17165 1916 2 SP MM NOT_NAMED 1916-01-04 15:00:00 NR -17.2442 165.464 main 210 201 __________P___ -1 -17.2442 165.464 7 4 76
1916005S17165 1916 2 SP MM NOT_NAMED 1916-01-04 18:00:00 NR -17.2107 165.583 main 201 201 __________P___ -1 -17.2107 165.583 7 1 293
1916005S17165 1916 2 SP MM NOT_NAMED 1916-01-04 21:00:00 NR -17.2221 165.410 main 219 219 __________P___ -1 -17.2221 165.410 7 6 264
1916005S17165 1916 2 SP MM NOT_NAMED 1916-01-04 23:00:00 NR -17.2655 165.061 main 251 260 __________P___ -1 -17.2655 165.061 7 12 262
1916005S17165 1916 2 SP MM NOT_NAMED 1916-01-05 00:00:00 NR -17.3000 164.800 main 278 278 __________O___ -1 -17.3000 164.800 7 20 262
1916005S17165 1916 2 SP MM NOT_NAMED 1916-01-05 03:00:00 NR -17.4538 163.662 main 304 304 __________P___ -1 -17.4538 163.662 7 26 262
1916005S17165 1916 2 SP MM NOT_NAMED 1916-01-05 06:00:00 NR -17.6581 162.134 main 349 349 __________P___ -1 -17.6581 162.134 7 31 262
1916005S17165 1916 2 SP MM NOT_NAMED 1916-01-05 09:00:00 NR -17.8820 160.413 main 463 463 __________P___ -1 -17.8820 160.413 7 33 262
1916005S17165 1916 2 SP EA NOT_NAMED 1916-01-05 12:00:00 NR -18.1000 158.700 main 608 608 __________O___ -1 -18.1000 158.700 7 34 264
1916005S17165 1916 2 SP EA NOT_NAMED 1916-01-05 15:00:00 NR -18.2418 156.840 main 788 647 __________P___ -1 -18.2418 156.840 7 34 265
1916005S17165 1916 2 SP EA NOT_NAMED 1916-01-05 18:00:00 NR -18.3789 155.088 main 640 542 __________P___ -1 -18.3789 155.088 7 29 264
1916005S17165 1916 2 SP EA NOT_NAMED 1916-01-05 21:00:00 NR -18.5498 153.767 main 542 494 __________P___ -1 -18.5498 153.767 7 21 259
1916005S17165 1916 2 SP EA NOT_NAMED 1916-01-05 23:00:00 NR -18.7049 153.285 main 494 479 __________P___ -1 -18.7049 153.285 7 12 245
1916005S17165 1916 2 SP EA NOT_NAMED 1916-01-06 00:00:00 NR -18.8000 153.200 main 479 463 __________O___ -1 -18.8000 153.200 7 10 142
1916005S17165 1916 2 SP EA NOT_NAMED 1916-01-06 03:00:00 NR -19.2549 153.734 main 466 466 __________P___ -1 -19.2549 153.734 7 20 119
1916005S17165 1916 2 SP EA NOT_NAMED 1916-01-06 06:00:00 NR -19.7775 155.035 main 529 529 __________P___ -1 -19.7775 155.035 7 31 109
1916005S17165 1916 2 SP EA NOT_NAMED 1916-01-06 09:00:00 NR -20.2598 156.796 main 618 563 __________P___ -1 -20.2598 156.796 7 35 103
1916005S17165 1916 2 SP EA NOT_NAMED 1916-01-06 12:00:00 NR -20.6000 158.700 main 553 387 __________O___ -1 -20.6000 158.700 7 34 97
1916005S17165 1916 2 SP MM NOT_NAMED 1916-01-06 15:00:00 NR -20.6679 160.446 main 377 200 __________P___ -1 -20.6679 160.446 7 33 90
1916005S17165 1916 2 SP MM NOT_NAMED 1916-01-06 18:00:00 NR -20.5898 162.229 main 190 23 __________P___ -1 -20.5898 162.229 7 32 86
1916005S17165 1916 2 SP MM NOT_NAMED 1916-01-06 21:00:00 NR -20.4402 163.871 main 15 0 __________P___ -1 -20.4402 163.871 7 29 84
1916005S17165 1916 2 SP MM NOT_NAMED 1916-01-06 23:00:00 NR -20.3405 164.802 main 23 30 __________P___ -1 -20.3405 164.802 7 25 84
1916005S17165 1916 2 SP MM NOT_NAMED 1916-01-07 00:00:00 NR -20.3000 165.200 main 53 53 __________O___ -1 -20.3000 165.200 7 17 86
1916005S17165 1916 2 SP MM NOT_NAMED 1916-01-07 03:00:00 NR -20.2667 166.016 main 99 99 __________P___ -1 -20.2667 166.016 7 12 89
1916005S17165 1916 2 SP MM NOT_NAMED 1916-01-07 06:00:00 NR -20.2719 166.515 main 137 137 __________P___ -1 -20.2719 166.515 7 8 94
1916005S17165 1916 2 SP MM NOT_NAMED 1916-01-07 09:00:00 NR -20.3166 166.832 main 152 148 __________P___ -1 -20.3166 166.832 7 6 103
1916005S17165 1916 2 SP MM NOT_NAMED 1916-01-07 12:00:00 NR -20.4000 167.100 main 160 160 __________O___ -1 -20.4000 167.100 7 6 103
1916005S17165 1916 2 SP MM NOT_NAMED 1916-01-07 15:00:00 NR -20.4562 167.495 main 176 176 __________P___ -1 -20.4562 167.495 7 7 102
1916005S17165 1916 2 SP MM NOT_NAMED 1916-01-07 18:00:00 NR -20.5560 167.872 main 197 197 __________P___ -1 -20.5560 167.872 7 8 111
1916005S17165 1916 2 SP MM NOT_NAMED 1916-01-07 21:00:00 NR -20.7279 168.264 main 213 205 __________P___ -1 -20.7279 168.264 7 9 120
1916005S17165 1916 2 SP MM NOT_NAMED 1916-01-08 00:00:00 NR -21.0000 168.700 main 221 221 __________O___ -1 -21.0000 168.700 7 12 126
1916005S17165 1916 2 SP MM NOT_NAMED 1916-01-08 03:00:00 NR -21.4045 169.263 main 253 249 __________P___ -1 -21.4045 169.263 7 14 130
1916005S17165 1916 2 SP MM NOT_NAMED 1916-01-08 06:00:00 NR -21.9041 169.869 main 300 299 __________P___ -1 -21.9041 169.869 7 15 133
1916005S17165 1916 2 SP MM NOT_NAMED 1916-01-08 09:00:00 NR -22.4515 170.466 main 360 360 __________P___ -1 -22.4515 170.466 7 15 136
1916005S17165 1916 2 SP MM NOT_NAMED 1916-01-08 12:00:00 NR -23.0000 171.000 main 417 417 __________O___ -1 -23.0000 171.000 7 14 140
1916005S17165 1916 2 SP MM NOT_NAMED 1916-01-08 15:00:00 NR -23.5134 171.429 main 470 470 __________P___ -1 -23.5134 171.429 7 12 145
1916005S17165 1916 2 SP MM NOT_NAMED 1916-01-08 18:00:00 NR -23.9938 171.769 main 526 526 __________P___ -1 -23.9938 171.769 7 11 149
1916005S17165 1916 2 SP MM NOT_NAMED 1916-01-08 21:00:00 NR -24.4524 172.049 main 566 566 __________P___ -1 -24.4524 172.049 7 10 152
1916005S17165 1916 2 SP MM NOT_NAMED 1916-01-09 00:00:00 NR -24.9000 172.300 main 612 __________O___ -1 -24.9000 172.300 7 10 153

Digital Typhoon Data and Search

About IBTrACS Database

This database is a web-friendly format of International Best Track Archive for Climate Stewardship (IBTrACS), a global best track data archive curated by NOAA dating back to 1842.

Updated: 2021-12-03